Time;durP1;ratioP1;P1;durP2;ratioP2;P2;SDS_P1;SDS_P2;PMS_P1;PMS_P2;Temp;Humidity;BMP_temperature;BMP_pressure;BME280_temperature;BME280_humidity;BME280_pressure;Samples;Min_cycle;Max_cycle;Signal;HPM_P1;HPM_P2
2023/08/08 00:02:19;;;;;;;3.00;1.23;;;;;;;;;;5074326;28;20482;-77
2023/08/08 00:04:47;;;;;;;1.67;1.20;;;;;;;;;;5074085;28;20440;-77
2023/08/08 00:07:14;;;;;;;1.60;1.37;;;;;;;;;;5073804;28;20494;-77
2023/08/08 00:09:41;;;;;;;1.67;1.43;;;;;;;;;;5074474;28;20902;-78
2023/08/08 00:12:09;;;;;;;2.03;1.43;;;;;;;;;;5073617;28;20467;-77
2023/08/08 00:14:36;;;;;;;1.80;1.40;;;;;;;;;;5074035;28;20812;-77
2023/08/08 00:17:03;;;;;;;1.70;1.60;;;;;;;;;;5073471;28;20439;-77
2023/08/08 00:19:30;;;;;;;2.07;1.70;;;;;;;;;;5073998;28;20455;-77
2023/08/08 00:21:59;;;;;;;1.73;1.40;;;;;;;;;;5073975;28;20514;-77
2023/08/08 00:24:26;;;;;;;2.37;1.30;;;;;;;;;;5074145;28;20454;-76
2023/08/08 00:26:53;;;;;;;2.37;1.47;;;;;;;;;;5073721;28;20483;-77
2023/08/08 00:29:20;;;;;;;1.97;1.57;;;;;;;;;;5073942;28;20462;-77
2023/08/08 00:31:47;;;;;;;2.30;1.30;;;;;;;;;;5073946;28;20494;-77
2023/08/08 00:34:14;;;;;;;2.13;1.53;;;;;;;;;;5073725;28;20450;-78
2023/08/08 00:36:41;;;;;;;2.30;1.60;;;;;;;;;;5073505;28;20454;-77
2023/08/08 00:39:10;;;;;;;2.07;1.73;;;;;;;;;;5073740;28;20914;-77
2023/08/08 00:41:37;;;;;;;3.03;1.90;;;;;;;;;;5073510;28;20471;-77
2023/08/08 00:44:04;;;;;;;2.10;1.37;;;;;;;;;;5073563;28;20448;-77
2023/08/08 00:46:31;;;;;;;2.60;1.70;;;;;;;;;;5073372;28;20459;-77
2023/08/08 00:48:59;;;;;;;1.60;1.30;;;;;;;;;;5073495;28;20454;-77
2023/08/08 00:51:26;;;;;;;1.97;1.47;;;;;;;;;;5073497;28;20485;-76
2023/08/08 00:53:53;;;;;;;1.80;1.53;;;;;;;;;;5073744;28;20428;-77
2023/08/08 00:56:22;;;;;;;2.50;1.93;;;;;;;;;;5073622;28;20447;-77
2023/08/08 00:58:50;;;;;;;2.27;1.60;;;;;;;;;;5073084;28;20449;-77
2023/08/08 01:01:18;;;;;;;2.13;1.50;;;;;;;;;;5073664;28;20483;-77
2023/08/08 01:03:45;;;;;;;1.63;1.30;;;;;;;;;;5073599;28;20455;-77
2023/08/08 01:06:15;;;;;;;3.33;1.20;;;;;;;;;;5073346;28;20451;-77
2023/08/08 01:08:45;;;;;;;2.13;1.53;;;;;;;;;;5073498;28;20483;-77
2023/08/08 01:11:13;;;;;;;1.93;1.43;;;;;;;;;;5073707;28;20472;-77
2023/08/08 01:13:42;;;;;;;3.23;1.60;;;;;;;;;;5073345;28;20436;-77
2023/08/08 01:16:09;;;;;;;2.40;1.50;;;;;;;;;;5073634;28;20955;-77
2023/08/08 01:18:37;;;;;;;3.30;1.97;;;;;;;;;;5072953;28;20447;-76
2023/08/08 01:21:05;;;;;;;2.40;1.53;;;;;;;;;;5073008;28;20959;-76
2023/08/08 01:23:35;;;;;;;2.83;1.50;;;;;;;;;;5073063;28;20460;-76
2023/08/08 01:26:03;;;;;;;2.93;1.30;;;;;;;;;;5072819;28;20462;-76
2023/08/08 01:28:30;;;;;;;4.80;1.50;;;;;;;;;;5072929;28;20479;-76
2023/08/08 01:30:58;;;;;;;2.27;1.43;;;;;;;;;;5073007;28;20940;-76
2023/08/08 01:33:25;;;;;;;2.60;1.63;;;;;;;;;;5073201;28;20439;-76
2023/08/08 01:35:54;;;;;;;2.30;1.50;;;;;;;;;;5073287;28;20823;-77
2023/08/08 01:38:23;;;;;;;2.97;1.40;;;;;;;;;;5072992;28;20460;-76
2023/08/08 01:40:51;;;;;;;2.67;1.63;;;;;;;;;;5072735;28;20439;-76
2023/08/08 01:43:20;;;;;;;2.17;1.33;;;;;;;;;;5072680;28;20452;-77
2023/08/08 01:45:47;;;;;;;2.90;1.33;;;;;;;;;;5073123;28;20447;-77
2023/08/08 01:48:14;;;;;;;1.53;1.20;;;;;;;;;;5072715;28;20483;-77
2023/08/08 01:50:42;;;;;;;1.90;1.70;;;;;;;;;;5072849;28;20813;-76
2023/08/08 01:53:09;;;;;;;2.67;1.50;;;;;;;;;;5072368;28;20544;-76
2023/08/08 01:55:38;;;;;;;2.43;1.43;;;;;;;;;;5072620;28;20542;-77
2023/08/08 01:58:05;;;;;;;1.83;1.53;;;;;;;;;;5072213;28;20505;-76
2023/08/08 02:00:34;;;;;;;1.70;1.33;;;;;;;;;;5072452;28;20444;-76
2023/08/08 02:03:02;;;;;;;2.20;1.80;;;;;;;;;;5072200;28;20464;-76
2023/08/08 02:05:29;;;;;;;1.93;1.67;;;;;;;;;;5072370;28;20451;-76
2023/08/08 02:07:56;;;;;;;2.13;1.70;;;;;;;;;;5072383;28;20581;-76
2023/08/08 02:10:23;;;;;;;2.00;1.70;;;;;;;;;;5074259;28;20451;-77
2023/08/08 02:12:50;;;;;;;1.73;1.33;;;;;;;;;;5076091;28;20467;-76
2023/08/08 02:15:17;;;;;;;2.00;1.30;;;;;;;;;;5076240;28;20451;-76
2023/08/08 02:17:47;;;;;;;1.70;1.40;;;;;;;;;;5075650;28;20451;-76
2023/08/08 02:20:14;;;;;;;2.50;1.60;;;;;;;;;;5076117;28;20443;-76
2023/08/08 02:22:41;;;;;;;3.37;2.00;;;;;;;;;;5075725;28;20464;-76
2023/08/08 02:25:09;;;;;;;1.80;1.40;;;;;;;;;;5075718;28;20446;-76
2023/08/08 02:27:36;;;;;;;2.27;1.50;;;;;;;;;;5075704;28;20487;-77
2023/08/08 02:30:04;;;;;;;4.13;2.00;;;;;;;;;;5076127;28;20819;-77
2023/08/08 02:32:31;;;;;;;2.40;1.53;;;;;;;;;;5075710;28;20468;-77
2023/08/08 02:34:59;;;;;;;6.17;1.77;;;;;;;;;;5075834;28;20455;-77
2023/08/08 02:37:26;;;;;;;3.47;1.80;;;;;;;;;;5075585;28;20448;-77
2023/08/08 02:39:53;;;;;;;2.17;1.43;;;;;;;;;;5075455;28;20543;-77
2023/08/08 02:42:20;;;;;;;2.40;2.00;;;;;;;;;;5075483;28;20856;-77
2023/08/08 02:44:47;;;;;;;2.40;2.00;;;;;;;;;;5075513;28;20995;-77
2023/08/08 02:47:15;;;;;;;2.87;1.73;;;;;;;;;;5075219;28;20494;-77
2023/08/08 02:49:42;;;;;;;3.70;1.70;;;;;;;;;;5075504;28;20444;-77
2023/08/08 02:52:10;;;;;;;4.07;1.87;;;;;;;;;;5075279;28;20482;-77
2023/08/08 02:54:37;;;;;;;7.60;3.10;;;;;;;;;;5075373;28;20458;-77
2023/08/08 02:57:05;;;;;;;9.80;2.80;;;;;;;;;;5075526;28;20451;-77
2023/08/08 02:59:32;;;;;;;3.07;1.97;;;;;;;;;;5075426;28;20447;-76
2023/08/08 03:01:59;;;;;;;2.50;2.17;;;;;;;;;;5075179;28;20463;-76
2023/08/08 03:04:26;;;;;;;4.03;1.97;;;;;;;;;;5075007;28;20455;-76
2023/08/08 03:06:53;;;;;;;2.73;2.00;;;;;;;;;;5074967;28;20451;-76
2023/08/08 03:09:22;;;;;;;1.80;1.53;;;;;;;;;;5075106;28;20992;-76
2023/08/08 03:11:49;;;;;;;4.00;2.03;;;;;;;;;;5074887;28;20562;-76
2023/08/08 03:14:16;;;;;;;4.97;2.40;;;;;;;;;;5075268;28;20455;-76
2023/08/08 03:16:43;;;;;;;2.20;2.00;;;;;;;;;;5075188;28;20443;-76
2023/08/08 03:19:10;;;;;;;2.17;1.87;;;;;;;;;;5075051;28;20443;-76
2023/08/08 03:21:37;;;;;;;2.00;1.60;;;;;;;;;;5074635;28;20472;-76
2023/08/08 03:24:05;;;;;;;2.40;1.77;;;;;;;;;;5074728;28;20463;-77
2023/08/08 03:26:33;;;;;;;2.03;1.77;;;;;;;;;;5074569;28;20458;-76
2023/08/08 03:29:00;;;;;;;3.67;1.90;;;;;;;;;;5074736;28;20494;-76
2023/08/08 03:31:27;;;;;;;3.80;2.97;;;;;;;;;;5074667;28;20848;-76
2023/08/08 03:33:55;;;;;;;4.73;3.90;;;;;;;;;;5074399;28;20448;-76
2023/08/08 03:36:22;;;;;;;3.70;2.67;;;;;;;;;;5074680;28;20542;-76
2023/08/08 03:38:50;;;;;;;3.40;1.93;;;;;;;;;;5074246;28;20448;-76
2023/08/08 03:41:17;;;;;;;2.63;2.20;;;;;;;;;;5074623;28;20494;-76
2023/08/08 03:43:45;;;;;;;7.27;2.10;;;;;;;;;;5074325;28;20448;-76
2023/08/08 03:46:13;;;;;;;3.00;1.97;;;;;;;;;;5073976;28;20456;-77
2023/08/08 03:48:40;;;;;;;2.30;2.10;;;;;;;;;;5074086;28;20491;-76
2023/08/08 03:51:07;;;;;;;1.87;1.70;;;;;;;;;;5073542;28;20468;-76
2023/08/08 03:53:34;;;;;;;2.97;1.70;;;;;;;;;;5074166;28;20436;-75
2023/08/08 03:56:01;;;;;;;3.10;1.70;;;;;;;;;;5073751;28;20447;-75
2023/08/08 03:58:29;;;;;;;2.50;2.10;;;;;;;;;;5073953;28;20451;-76
2023/08/08 04:00:57;;;;;;;1.90;1.70;;;;;;;;;;5072981;28;20482;-77
2023/08/08 04:03:24;;;;;;;2.00;1.80;;;;;;;;;;5072759;28;20440;-76
2023/08/08 04:05:51;;;;;;;7.33;2.20;;;;;;;;;;5072938;28;20454;-76
2023/08/08 04:08:18;;;;;;;3.70;2.93;;;;;;;;;;5072434;28;20483;-76
2023/08/08 04:10:48;;;;;;;2.80;2.10;;;;;;;;;;5072669;28;20448;-76
2023/08/08 04:13:15;;;;;;;2.70;2.17;;;;;;;;;;5072889;28;21019;-76
2023/08/08 04:15:42;;;;;;;2.27;1.97;;;;;;;;;;5072539;28;20459;-76
2023/08/08 04:18:10;;;;;;;3.90;1.90;;;;;;;;;;5072528;28;20443;-76
2023/08/08 04:20:38;;;;;;;8.33;2.70;;;;;;;;;;5072514;28;20440;-76
2023/08/08 04:23:05;;;;;;;1.93;1.73;;;;;;;;;;5072707;28;20515;-76
2023/08/08 04:25:32;;;;;;;2.50;1.70;;;;;;;;;;5072854;28;20923;-76
2023/08/08 04:28:00;;;;;;;2.43;1.83;;;;;;;;;;5072531;28;20491;-77
2023/08/08 04:30:27;;;;;;;2.43;1.90;;;;;;;;;;5072088;28;20447;-76
2023/08/08 04:32:54;;;;;;;3.23;2.30;;;;;;;;;;5071631;28;20464;-77
2023/08/08 04:35:23;;;;;;;4.07;2.30;;;;;;;;;;5072477;28;20455;-76
2023/08/08 04:37:50;;;;;;;3.57;2.20;;;;;;;;;;5072457;28;20444;-77
2023/08/08 04:40:17;;;;;;;2.80;1.60;;;;;;;;;;5072406;28;20546;-77
2023/08/08 04:42:44;;;;;;;2.10;1.90;;;;;;;;;;5073218;28;20470;-79
2023/08/08 04:45:12;;;;;;;9.13;3.23;;;;;;;;;;5075160;28;20518;-77
2023/08/08 04:47:40;;;;;;;3.20;2.50;;;;;;;;;;5075080;28;20467;-77
2023/08/08 04:50:07;;;;;;;3.00;2.40;;;;;;;;;;5075079;28;20452;-78
2023/08/08 04:52:36;;;;;;;3.43;2.83;;;;;;;;;;5074145;28;20479;-78
2023/08/08 04:55:03;;;;;;;6.60;4.13;;;;;;;;;;5074712;28;20442;-78
2023/08/08 04:57:30;;;;;;;3.63;2.77;;;;;;;;;;5074028;28;20807;-78
2023/08/08 05:00:01;;;;;;;2.37;1.67;;;;;;;;;;5074961;28;20451;-77
2023/08/08 05:02:28;;;;;;;2.83;1.90;;;;;;;;;;5074730;28;20467;-77
2023/08/08 05:04:55;;;;;;;2.83;1.60;;;;;;;;;;5075231;28;20448;-77
2023/08/08 05:07:22;;;;;;;3.33;2.70;;;;;;;;;;5073667;28;20447;-78
2023/08/08 05:09:51;;;;;;;2.40;1.80;;;;;;;;;;5074916;28;20598;-78
2023/08/08 05:12:19;;;;;;;2.83;2.00;;;;;;;;;;5075058;28;20463;-77
2023/08/08 05:14:46;;;;;;;3.47;1.80;;;;;;;;;;5075004;28;20966;-77
2023/08/08 05:17:13;;;;;;;2.43;1.60;;;;;;;;;;5074494;28;20487;-77
2023/08/08 05:19:40;;;;;;;4.60;2.10;;;;;;;;;;5074705;28;20462;-78
2023/08/08 05:22:07;;;;;;;2.73;2.27;;;;;;;;;;5074899;28;20468;-78
2023/08/08 05:24:35;;;;;;;4.73;3.20;;;;;;;;;;5075056;28;20456;-78
2023/08/08 05:27:04;;;;;;;4.83;2.60;;;;;;;;;;5074812;28;20448;-78
2023/08/08 05:29:31;;;;;;;4.30;3.10;;;;;;;;;;5075016;28;20487;-78
2023/08/08 05:31:59;;;;;;;2.00;1.70;;;;;;;;;;5074813;28;20475;-79
2023/08/08 05:34:26;;;;;;;2.40;1.93;;;;;;;;;;5076521;28;20937;-79
2023/08/08 05:36:53;;;;;;;1.90;1.63;;;;;;;;;;5076516;28;20753;-78
2023/08/08 05:39:20;;;;;;;1.70;1.37;;;;;;;;;;5076619;28;20459;-78
2023/08/08 05:41:47;;;;;;;2.30;1.87;;;;;;;;;;5076626;28;20448;-79
2023/08/08 05:44:16;;;;;;;2.80;2.00;;;;;;;;;;5078562;28;20460;-79
2023/08/08 05:46:43;;;;;;;2.10;1.80;;;;;;;;;;5082157;28;20443;-77
2023/08/08 05:49:10;;;;;;;3.30;2.80;;;;;;;;;;5080402;28;20519;-78
2023/08/08 05:51:37;;;;;;;3.57;2.10;;;;;;;;;;5080601;28;20907;-79
2023/08/08 05:54:04;;;;;;;2.40;1.57;;;;;;;;;;5081502;28;20451;-78
2023/08/08 05:56:36;;;;;;;1.80;1.60;;;;;;;;;;5081967;28;20542;-79
2023/08/08 05:59:04;;;;;;;7.13;1.53;;;;;;;;;;5080845;28;20439;-79
2023/08/08 06:01:32;;;;;;;2.80;1.67;;;;;;;;;;5078980;28;20955;-78
2023/08/08 06:04:00;;;;;;;1.87;1.50;;;;;;;;;;5079840;28;20936;-78
2023/08/08 06:06:27;;;;;;;1.70;1.40;;;;;;;;;;5079224;28;20456;-78
2023/08/08 06:08:54;;;;;;;2.70;1.80;;;;;;;;;;5080406;28;20487;-79
2023/08/08 06:11:22;;;;;;;2.67;1.70;;;;;;;;;;5079969;28;21063;-78
2023/08/08 06:13:49;;;;;;;3.20;1.40;;;;;;;;;;5079489;28;20481;-78
2023/08/08 06:16:18;;;;;;;2.53;1.60;;;;;;;;;;5079578;28;20447;-78
2023/08/08 06:18:46;;;;;;;3.10;1.60;;;;;;;;;;5078326;28;20848;-78
2023/08/08 06:21:14;;;;;;;2.87;2.37;;;;;;;;;;5078670;28;20463;-78
2023/08/08 06:23:41;;;;;;;1.63;1.40;;;;;;;;;;5078651;28;20463;-79
2023/08/08 06:26:09;;;;;;;2.07;1.87;;;;;;;;;;5078214;28;20475;-78
2023/08/08 06:28:36;;;;;;;1.83;1.43;;;;;;;;;;5078402;28;20494;-79
2023/08/08 06:31:03;;;;;;;2.60;1.40;;;;;;;;;;5077422;28;20468;-79
2023/08/08 06:33:30;;;;;;;1.80;1.40;;;;;;;;;;5078048;28;20451;-78
2023/08/08 06:35:59;;;;;;;2.97;1.40;;;;;;;;;;5078357;28;20505;-78
2023/08/08 06:38:26;;;;;;;1.70;1.30;;;;;;;;;;5077970;28;20454;-78
2023/08/08 06:40:55;;;;;;;3.70;1.80;;;;;;;;;;5077944;28;20516;-78
2023/08/08 06:43:23;;;;;;;1.90;1.60;;;;;;;;;;5078696;28;20547;-79
2023/08/08 06:45:50;;;;;;;1.83;1.40;;;;;;;;;;5078561;28;20451;-78
2023/08/08 06:48:17;;;;;;;5.10;1.83;;;;;;;;;;5078673;28;20542;-79
2023/08/08 06:50:45;;;;;;;1.90;1.63;;;;;;;;;;5078074;28;20468;-79
2023/08/08 06:53:13;;;;;;;3.33;1.60;;;;;;;;;;5078181;28;20483;-79
2023/08/08 06:55:40;;;;;;;5.07;1.90;;;;;;;;;;5077919;28;20462;-79
2023/08/08 06:58:07;;;;;;;3.47;1.83;;;;;;;;;;5078683;28;20816;-78
2023/08/08 07:00:34;;;;;;;1.77;1.40;;;;;;;;;;5079356;28;20448;-78
2023/08/08 07:03:02;;;;;;;2.27;1.70;;;;;;;;;;5080021;28;20968;-79
2023/08/08 07:05:29;;;;;;;3.07;1.70;;;;;;;;;;5078218;28;20496;-77
2023/08/08 07:07:56;;;;;;;3.67;1.63;;;;;;;;;;5076838;28;20485;-78
2023/08/08 07:10:25;;;;;;;1.60;1.30;;;;;;;;;;5078281;28;20864;-79
2023/08/08 07:12:53;;;;;;;1.43;1.33;;;;;;;;;;5078850;28;20473;-80
2023/08/08 07:15:21;;;;;;;2.87;1.93;;;;;;;;;;5077774;28;20542;-80
2023/08/08 07:17:49;;;;;;;2.73;1.77;;;;;;;;;;5076941;28;20567;-79
2023/08/08 07:20:17;;;;;;;3.73;1.90;;;;;;;;;;5077904;28;20494;-79
2023/08/08 07:22:44;;;;;;;1.87;1.30;;;;;;;;;;5080033;28;20459;-79
2023/08/08 07:25:12;;;;;;;2.67;1.70;;;;;;;;;;5078592;28;20844;-79
2023/08/08 07:27:40;;;;;;;1.60;1.33;;;;;;;;;;5079939;28;20459;-79
2023/08/08 07:30:08;;;;;;;2.73;1.37;;;;;;;;;;5079472;28;20484;-79
2023/08/08 07:32:35;;;;;;;1.40;1.10;;;;;;;;;;5077822;28;20476;-78
2023/08/08 07:35:05;;;;;;;5.60;1.30;;;;;;;;;;5077401;28;20455;-79
2023/08/08 07:37:33;;;;;;;2.33;1.20;;;;;;;;;;5078791;28;20472;-79
2023/08/08 07:40:00;;;;;;;1.60;1.40;;;;;;;;;;5078034;28;20952;-79
2023/08/08 07:42:27;;;;;;;3.73;1.87;;;;;;;;;;5077121;28;20475;-79
2023/08/08 07:44:56;;;;;;;1.80;1.57;;;;;;;;;;5078276;28;20453;-78
2023/08/08 07:47:23;;;;;;;1.47;1.20;;;;;;;;;;5078172;28;20435;-79
2023/08/08 07:49:50;;;;;;;2.80;1.20;;;;;;;;;;5065061;28;20928;-80
2023/08/08 07:52:17;;;;;;;4.40;1.87;;;;;;;;;;5056458;28;21044;-79
2023/08/08 07:54:44;;;;;;;1.70;1.40;;;;;;;;;;5056976;28;20433;-78
2023/08/08 07:57:11;;;;;;;1.70;1.30;;;;;;;;;;5057718;28;20492;-79
2023/08/08 07:59:39;;;;;;;1.83;1.13;;;;;;;;;;5057537;28;20503;-78
2023/08/08 08:02:08;;;;;;;1.63;1.40;;;;;;;;;;5059364;28;20846;-79
2023/08/08 08:04:35;;;;;;;1.60;1.20;;;;;;;;;;5058503;28;20508;-80
2023/08/08 08:07:03;;;;;;;1.90;1.50;;;;;;;;;;5059298;28;20539;-79
2023/08/08 08:09:30;;;;;;;2.33;1.50;;;;;;;;;;5059099;28;20859;-79
2023/08/08 08:11:57;;;;;;;1.73;1.40;;;;;;;;;;5058812;28;21060;-79
2023/08/08 08:14:24;;;;;;;2.10;1.60;;;;;;;;;;5059690;28;20463;-79
2023/08/08 08:16:51;;;;;;;2.70;1.53;;;;;;;;;;5058242;28;20455;-77
2023/08/08 08:19:20;;;;;;;4.30;2.03;;;;;;;;;;5056717;28;20442;-79
2023/08/08 08:21:48;;;;;;;2.43;1.50;;;;;;;;;;5055244;28;20472;-78
2023/08/08 08:24:15;;;;;;;1.80;1.40;;;;;;;;;;5055108;28;20459;-78
2023/08/08 08:26:42;;;;;;;2.00;1.27;;;;;;;;;;5053862;28;20455;-78
2023/08/08 08:29:09;;;;;;;2.40;1.80;;;;;;;;;;5053820;28;20484;-78
2023/08/08 08:31:38;;;;;;;2.60;1.47;;;;;;;;;;5053221;28;20472;-78
2023/08/08 08:34:05;;;;;;;2.23;1.40;;;;;;;;;;5053361;28;20441;-78
2023/08/08 08:36:34;;;;;;;1.60;1.30;;;;;;;;;;5053599;28;20457;-78
2023/08/08 08:39:01;;;;;;;3.30;1.43;;;;;;;;;;5054470;28;20453;-78
2023/08/08 08:41:29;;;;;;;2.47;1.37;;;;;;;;;;5055410;28;20476;-79
2023/08/08 08:43:56;;;;;;;2.30;1.40;;;;;;;;;;5053407;28;20452;-78
2023/08/08 08:46:23;;;;;;;2.00;1.37;;;;;;;;;;5054069;28;20824;-78
2023/08/08 08:48:51;;;;;;;2.00;1.57;;;;;;;;;;5053143;28;20824;-78
2023/08/08 08:51:18;;;;;;;1.73;1.40;;;;;;;;;;5053648;28;20845;-78
2023/08/08 08:53:47;;;;;;;6.50;1.87;;;;;;;;;;5053609;28;20451;-79
2023/08/08 08:56:16;;;;;;;2.47;1.80;;;;;;;;;;5054380;28;20522;-78
2023/08/08 08:58:43;;;;;;;1.83;1.50;;;;;;;;;;5054178;28;20533;-79
2023/08/08 09:01:11;;;;;;;1.90;1.40;;;;;;;;;;5053328;28;20452;-78
2023/08/08 09:03:38;;;;;;;2.07;1.47;;;;;;;;;;5055916;28;20437;-79
2023/08/08 09:06:06;;;;;;;2.73;1.70;;;;;;;;;;5055322;28;20451;-79
2023/08/08 09:08:33;;;;;;;1.80;1.40;;;;;;;;;;5054585;28;20553;-79
2023/08/08 09:11:01;;;;;;;4.53;1.30;;;;;;;;;;5053933;28;20488;-79
2023/08/08 09:13:29;;;;;;;1.70;1.30;;;;;;;;;;5054424;28;20452;-80
2023/08/08 09:15:56;;;;;;;1.60;1.30;;;;;;;;;;5053679;28;20495;-80
2023/08/08 09:18:25;;;;;;;4.07;2.83;;;;;;;;;;5054192;28;20799;-80
2023/08/08 09:20:52;;;;;;;2.77;1.50;;;;;;;;;;5058756;28;20522;-80
2023/08/08 09:23:19;;;;;;;1.50;1.10;;;;;;;;;;5059422;28;20456;-79
2023/08/08 09:25:47;;;;;;;1.80;1.57;;;;;;;;;;5058545;28;20829;-80
2023/08/08 09:28:15;;;;;;;1.77;1.17;;;;;;;;;;5057915;28;20460;-80
2023/08/08 09:30:43;;;;;;;1.60;1.30;;;;;;;;;;5058517;28;21032;-79
2023/08/08 09:33:10;;;;;;;6.97;1.53;;;;;;;;;;5058909;28;20491;-79
2023/08/08 09:35:39;;;;;;;2.13;1.57;;;;;;;;;;5059076;28;20468;-78
2023/08/08 09:38:07;;;;;;;3.40;1.70;;;;;;;;;;5059232;28;20514;-80
2023/08/08 09:40:34;;;;;;;3.50;1.50;;;;;;;;;;5059160;28;20464;-80
2023/08/08 09:43:02;;;;;;;2.27;1.50;;;;;;;;;;5058776;28;20504;-80
2023/08/08 09:45:36;;;;;;;1.63;1.40;;;;;;;;;;5058754;28;20802;-80
2023/08/08 09:48:03;;;;;;;1.73;1.53;;;;;;;;;;5059124;28;20528;-79
2023/08/08 09:50:32;;;;;;;2.80;1.63;;;;;;;;;;5059336;28;20564;-79
2023/08/08 09:53:00;;;;;;;2.43;2.10;;;;;;;;;;5059693;28;20528;-79
2023/08/08 09:55:27;;;;;;;2.13;1.63;;;;;;;;;;5059103;28;20471;-79
2023/08/08 09:57:55;;;;;;;1.80;1.40;;;;;;;;;;5058501;28;20447;-80
2023/08/08 10:00:25;;;;;;;1.93;1.30;;;;;;;;;;5058970;28;20476;-80
2023/08/08 10:02:53;;;;;;;2.50;1.70;;;;;;;;;;5059398;28;20487;-79
2023/08/08 10:05:20;;;;;;;2.40;2.20;;;;;;;;;;5059845;28;20425;-79
2023/08/08 10:07:47;;;;;;;4.30;2.07;;;;;;;;;;5058982;28;20604;-80
2023/08/08 10:10:15;;;;;;;4.77;1.70;;;;;;;;;;5058894;28;20496;-79
2023/08/08 10:12:43;;;;;;;2.00;1.60;;;;;;;;;;5058696;28;20547;-79
2023/08/08 10:15:11;;;;;;;2.17;1.77;;;;;;;;;;5059339;28;20453;-79
2023/08/08 10:17:39;;;;;;;2.00;1.50;;;;;;;;;;5059612;28;20938;-80
2023/08/08 10:20:11;;;;;;;2.43;1.70;;;;;;;;;;5060039;28;20552;-80
2023/08/08 10:22:39;;;;;;;2.57;1.60;;;;;;;;;;5059356;28;20472;-81
2023/08/08 10:25:06;;;;;;;2.60;1.97;;;;;;;;;;5058324;28;20809;-80
2023/08/08 10:27:34;;;;;;;1.83;1.63;;;;;;;;;;5058719;28;20443;-81
2023/08/08 10:30:06;;;;;;;2.40;2.00;;;;;;;;;;5059430;28;20493;-81
2023/08/08 10:32:40;;;;;;;2.77;1.73;;;;;;;;;;5059575;28;20470;-81
2023/08/08 10:35:09;;;;;;;1.77;1.37;;;;;;;;;;5059004;28;20461;-81
2023/08/08 10:37:38;;;;;;;2.40;2.10;;;;;;;;;;5058203;28;20444;-81
2023/08/08 10:40:07;;;;;;;2.47;1.60;;;;;;;;;;5059044;28;20475;-82
2023/08/08 10:42:34;;;;;;;3.43;1.40;;;;;;;;;;5059150;28;20527;-81
2023/08/08 10:45:02;;;;;;;2.50;1.50;;;;;;;;;;5057711;28;20463;-82
2023/08/08 10:47:32;;;;;;;2.70;1.43;;;;;;;;;;5059519;28;20445;-81
2023/08/08 10:50:05;;;;;;;2.07;1.60;;;;;;;;;;5058405;28;20564;-80
2023/08/08 10:52:35;;;;;;;6.53;1.67;;;;;;;;;;5059079;28;20896;-79
2023/08/08 10:55:03;;;;;;;2.20;1.70;;;;;;;;;;5058594;28;20457;-80
2023/08/08 10:57:30;;;;;;;2.03;1.60;;;;;;;;;;5057965;28;20459;-80
2023/08/08 10:59:57;;;;;;;1.80;1.53;;;;;;;;;;5058063;28;20468;-80
2023/08/08 11:02:24;;;;;;;1.80;1.30;;;;;;;;;;5058032;28;20482;-79
2023/08/08 11:04:52;;;;;;;1.63;1.20;;;;;;;;;;5057915;28;20460;-81
2023/08/08 11:07:19;;;;;;;2.50;1.60;;;;;;;;;;5058084;28;20463;-81
2023/08/08 11:09:48;;;;;;;2.40;1.90;;;;;;;;;;5058285;28;20452;-79
2023/08/08 11:12:16;;;;;;;2.93;1.30;;;;;;;;;;5058212;28;20473;-79
2023/08/08 11:14:43;;;;;;;3.00;1.67;;;;;;;;;;5058064;28;20453;-79
2023/08/08 11:17:12;;;;;;;1.70;1.20;;;;;;;;;;5058243;28;20941;-81
2023/08/08 11:19:43;;;;;;;6.10;1.40;;;;;;;;;;5059174;28;20484;-81
2023/08/08 11:22:13;;;;;;;1.90;1.47;;;;;;;;;;5058936;28;20563;-82
2023/08/08 11:24:40;;;;;;;2.50;1.30;;;;;;;;;;5058160;28;20457;-80
2023/08/08 11:27:08;;;;;;;3.83;1.60;;;;;;;;;;5057917;28;20471;-80
2023/08/08 11:29:35;;;;;;;2.90;1.50;;;;;;;;;;5057507;28;20463;-81
2023/08/08 11:32:04;;;;;;;2.00;1.70;;;;;;;;;;5057068;28;20485;-81
2023/08/08 11:34:32;;;;;;;1.93;1.73;;;;;;;;;;5057500;28;20954;-81
2023/08/08 11:37:00;;;;;;;1.90;1.47;;;;;;;;;;5057783;28;20448;-79
2023/08/08 11:39:29;;;;;;;2.90;1.50;;;;;;;;;;5058057;28;20457;-79
2023/08/08 11:41:56;;;;;;;3.73;1.63;;;;;;;;;;5057285;28;20576;-80
2023/08/08 11:44:25;;;;;;;2.13;1.43;;;;;;;;;;5058478;28;20447;-80
2023/08/08 11:46:52;;;;;;;2.37;1.60;;;;;;;;;;5057504;28;20467;-81
2023/08/08 11:49:19;;;;;;;1.70;1.40;;;;;;;;;;5057772;28;20456;-79
2023/08/08 11:51:47;;;;;;;2.00;1.50;;;;;;;;;;5057628;28;20497;-79
2023/08/08 11:54:15;;;;;;;3.00;1.60;;;;;;;;;;5057323;28;20464;-80
2023/08/08 11:56:42;;;;;;;1.60;1.40;;;;;;;;;;5057478;28;21013;-80
2023/08/08 11:59:10;;;;;;;1.90;1.50;;;;;;;;;;5057059;28;20456;-81
2023/08/08 12:01:39;;;;;;;1.73;1.50;;;;;;;;;;5056224;28;20480;-80
2023/08/08 12:04:07;;;;;;;2.90;1.40;;;;;;;;;;5057660;28;20484;-81
2023/08/08 12:06:34;;;;;;;1.50;1.30;;;;;;;;;;5057818;28;20559;-80
2023/08/08 12:09:02;;;;;;;3.87;1.90;;;;;;;;;;5057438;28;20453;-80
2023/08/08 12:11:30;;;;;;;3.83;1.67;;;;;;;;;;5057137;28;20564;-80
2023/08/08 12:14:01;;;;;;;1.80;1.50;;;;;;;;;;5057546;28;20517;-80
2023/08/08 12:16:29;;;;;;;1.93;1.40;;;;;;;;;;5057441;28;20441;-81
2023/08/08 12:18:58;;;;;;;2.77;1.37;;;;;;;;;;5056762;28;20453;-80
2023/08/08 12:21:25;;;;;;;4.03;1.50;;;;;;;;;;5057813;28;20475;-79
2023/08/08 12:23:52;;;;;;;2.17;1.67;;;;;;;;;;5056399;28;20501;-80
2023/08/08 12:26:20;;;;;;;2.43;1.10;;;;;;;;;;5056591;28;20459;-78
2023/08/08 12:28:47;;;;;;;2.77;1.60;;;;;;;;;;5055713;28;20448;-79
2023/08/08 12:31:14;;;;;;;1.70;1.40;;;;;;;;;;5056414;28;20856;-78
2023/08/08 12:33:41;;;;;;;3.10;1.67;;;;;;;;;;5056145;28;20444;-79
2023/08/08 12:36:10;;;;;;;2.17;1.60;;;;;;;;;;5057324;28;20465;-80
2023/08/08 12:38:37;;;;;;;2.07;1.03;;;;;;;;;;5057237;28;20452;-81
2023/08/08 12:41:04;;;;;;;2.43;1.50;;;;;;;;;;5056689;28;20453;-82
2023/08/08 12:43:31;;;;;;;3.10;1.60;;;;;;;;;;5057884;28;20456;-82
2023/08/08 12:45:58;;;;;;;1.60;1.20;;;;;;;;;;5057266;28;20995;-82
2023/08/08 12:48:26;;;;;;;1.73;1.47;;;;;;;;;;5056261;28;20526;-80
2023/08/08 12:50:53;;;;;;;3.20;1.47;;;;;;;;;;5055769;28;20495;-80
2023/08/08 12:53:21;;;;;;;3.27;1.60;;;;;;;;;;5055374;28;20465;-80
2023/08/08 12:55:49;;;;;;;2.30;1.80;;;;;;;;;;5055143;28;20823;-83
2023/08/08 12:58:16;;;;;;;2.80;1.80;;;;;;;;;;5056341;28;20793;-82
2023/08/08 13:00:43;;;;;;;1.60;1.40;;;;;;;;;;5055457;28;20464;-82
2023/08/08 13:03:12;;;;;;;2.73;1.50;;;;;;;;;;5057170;28;20476;-82
2023/08/08 13:05:39;;;;;;;1.43;1.30;;;;;;;;;;5056750;28;20445;-82
2023/08/08 13:08:07;;;;;;;2.07;1.27;;;;;;;;;;5055290;28;20441;-82
2023/08/08 13:10:35;;;;;;;7.03;1.37;;;;;;;;;;5055498;28;20495;-82
2023/08/08 13:13:02;;;;;;;2.17;1.60;;;;;;;;;;5055932;28;20480;-82
2023/08/08 13:15:29;;;;;;;2.13;1.43;;;;;;;;;;5056638;28;20432;-83
2023/08/08 13:17:56;;;;;;;4.60;1.80;;;;;;;;;;5056152;28;20559;-82
2023/08/08 13:20:24;;;;;;;4.80;1.33;;;;;;;;;;5056302;28;20441;-82
2023/08/08 13:22:51;;;;;;;1.80;1.30;;;;;;;;;;5055774;28;20840;-82
2023/08/08 13:25:18;;;;;;;3.80;1.43;;;;;;;;;;5056316;28;20452;-82
2023/08/08 13:27:47;;;;;;;1.77;1.43;;;;;;;;;;5055722;28;20569;-82
2023/08/08 13:30:15;;;;;;;1.57;1.33;;;;;;;;;;5056158;28;20429;-82
2023/08/08 13:32:42;;;;;;;1.90;1.60;;;;;;;;;;5056605;28;20460;-82
2023/08/08 13:35:10;;;;;;;2.03;1.63;;;;;;;;;;5054966;28;20476;-82
2023/08/08 13:37:37;;;;;;;4.40;1.70;;;;;;;;;;5054601;28;20437;-82
2023/08/08 13:40:04;;;;;;;2.63;1.60;;;;;;;;;;5055277;28;20457;-82
2023/08/08 13:42:32;;;;;;;4.10;1.73;;;;;;;;;;5055397;28;20556;-82
2023/08/08 13:45:00;;;;;;;3.03;1.70;;;;;;;;;;5055465;28;20437;-82
2023/08/08 13:47:28;;;;;;;4.53;1.50;;;;;;;;;;5055398;28;20451;-82
2023/08/08 13:49:55;;;;;;;2.07;1.80;;;;;;;;;;5055203;28;20457;-82
2023/08/08 13:52:22;;;;;;;2.30;1.70;;;;;;;;;;5054717;28;20520;-82
2023/08/08 13:54:49;;;;;;;2.10;1.57;;;;;;;;;;5055142;28;20525;-83
2023/08/08 13:57:16;;;;;;;1.83;1.50;;;;;;;;;;5055087;28;20449;-82
2023/08/08 13:59:44;;;;;;;2.40;1.47;;;;;;;;;;5054913;28;20449;-82
2023/08/08 14:02:12;;;;;;;3.20;1.60;;;;;;;;;;5054456;28;20472;-82
2023/08/08 14:04:39;;;;;;;2.07;1.63;;;;;;;;;;5055235;28;20945;-82
2023/08/08 14:07:07;;;;;;;4.67;1.70;;;;;;;;;;5057684;28;20452;-82
2023/08/08 14:09:34;;;;;;;2.17;1.50;;;;;;;;;;5059355;28;20452;-82
2023/08/08 14:12:01;;;;;;;3.00;1.80;;;;;;;;;;5058623;28;20496;-82
2023/08/08 14:14:28;;;;;;;2.17;1.43;;;;;;;;;;5059070;28;20467;-81
2023/08/08 14:16:55;;;;;;;2.73;1.87;;;;;;;;;;5058349;28;20462;-82
2023/08/08 14:19:24;;;;;;;5.57;1.70;;;;;;;;;;5058547;28;20429;-82
2023/08/08 14:21:51;;;;;;;2.37;1.90;;;;;;;;;;5059465;28;20498;-81
2023/08/08 14:24:18;;;;;;;1.87;1.43;;;;;;;;;;5059217;28;20835;-81
2023/08/08 14:26:45;;;;;;;2.93;1.70;;;;;;;;;;5070319;28;20812;-82
2023/08/08 14:29:13;;;;;;;2.90;2.07;;;;;;;;;;5078940;28;20797;-82
2023/08/08 14:31:40;;;;;;;2.63;1.50;;;;;;;;;;5079851;28;20578;-81
2023/08/08 14:34:07;;;;;;;2.40;1.80;;;;;;;;;;5079930;28;20466;-81
2023/08/08 14:36:36;;;;;;;1.83;1.57;;;;;;;;;;5080089;28;20503;-82
2023/08/08 14:39:03;;;;;;;3.93;2.00;;;;;;;;;;5079217;28;20454;-80
2023/08/08 14:41:30;;;;;;;2.07;1.80;;;;;;;;;;5079293;28;20480;-81
2023/08/08 14:43:58;;;;;;;2.20;1.80;;;;;;;;;;5078893;28;20452;-81
2023/08/08 14:46:25;;;;;;;2.50;1.83;;;;;;;;;;5069308;28;20456;-82